createdAt,value
2018-09-08T00:01:05.462Z,63.82
2018-09-08T00:03:34.814Z,64.64
2018-09-08T00:06:04.541Z,65.01
2018-09-08T00:08:34.342Z,64.81
2018-09-08T00:11:04.590Z,65.10
2018-09-08T00:13:34.100Z,65.93
2018-09-08T00:16:08.708Z,66.36
2018-09-08T00:18:43.387Z,66.18
2018-09-08T00:21:17.743Z,66.54
2018-09-08T00:23:52.370Z,66.39
2018-09-08T00:26:27.037Z,66.76
2018-09-08T00:29:00.843Z,67.49
2018-09-08T00:31:30.623Z,67.56
2018-09-08T00:34:00.083Z,68.17
2018-09-08T00:36:29.621Z,68.75
2018-09-08T00:38:59.040Z,68.89
2018-09-08T00:41:29.246Z,69.44
2018-09-08T00:43:59.091Z,69.93
2018-09-08T00:46:29.161Z,70.71
2018-09-08T00:48:59.703Z,70.71
2018-09-08T00:51:29.534Z,70.86
2018-09-08T00:53:59.243Z,71.01
2018-09-08T00:56:29.130Z,70.88
2018-09-08T00:59:05.250Z,71.67
2018-09-08T01:01:36.232Z,71.88
2018-09-08T01:04:06.114Z,71.78
2018-09-08T01:06:35.685Z,71.47
2018-09-08T01:09:06.771Z,71.61
2018-09-08T01:11:36.629Z,71.86
2018-09-08T01:14:06.468Z,71.83
2018-09-08T01:16:36.311Z,71.81
2018-09-08T01:19:07.054Z,72.11
2018-09-08T01:21:36.776Z,72.46
2018-09-08T01:24:06.212Z,71.86
2018-09-08T01:26:36.017Z,71.96
2018-09-08T01:29:06.634Z,72.04
2018-09-08T01:31:36.642Z,72.44
2018-09-08T01:34:06.145Z,72.81
2018-09-08T01:36:36.212Z,73.20
2018-09-08T01:39:06.781Z,73.01
2018-09-08T01:41:36.547Z,73.36
2018-09-08T01:44:06.102Z,73.34
2018-09-08T01:46:35.581Z,73.32
2018-09-08T01:49:05.105Z,73.48
2018-09-08T01:51:34.630Z,73.29
2018-09-08T01:54:04.098Z,73.42
2018-09-08T01:56:34.065Z,74.26
2018-09-08T01:59:03.787Z,73.91
2018-09-08T02:01:33.443Z,74.05
2018-09-08T02:04:03.022Z,74.08
2018-09-08T02:06:32.866Z,74.09
2018-09-08T02:09:02.572Z,74.21
2018-09-08T02:11:32.199Z,74.34
2018-09-08T02:14:01.873Z,74.15
2018-09-08T02:16:31.659Z,74.30
2018-09-08T02:19:02.263Z,74.02
2018-09-08T02:21:31.920Z,74.42
2018-09-08T02:24:01.596Z,74.90
2018-09-08T02:26:31.158Z,74.77
2018-09-08T02:29:00.637Z,73.97
2018-09-08T02:31:30.175Z,74.40
2018-09-08T02:33:59.726Z,74.23
2018-09-08T02:36:29.527Z,74.00
2018-09-08T02:38:59.338Z,74.02
2018-09-08T02:41:28.809Z,73.83
2018-09-08T02:43:58.352Z,74.06
2018-09-08T02:46:28.041Z,74.63
2018-09-08T02:48:58.410Z,74.89
2018-09-08T02:51:27.012Z,74.84
2018-09-08T02:53:54.913Z,74.68
2018-09-08T02:56:23.166Z,74.35
2018-09-08T02:58:51.315Z,74.05
2018-09-08T03:01:19.542Z,73.58
2018-09-08T03:03:48.031Z,74.03
2018-09-08T03:06:15.989Z,73.83
2018-09-08T03:08:44.014Z,74.02
2018-09-08T03:11:12.028Z,73.83
2018-09-08T03:13:40.093Z,74.28
2018-09-08T03:16:08.377Z,74.01
2018-09-08T03:18:36.440Z,74.28
2018-09-08T03:21:04.715Z,74.07
2018-09-08T03:23:32.690Z,74.98
2018-09-08T03:26:00.754Z,74.79
2018-09-08T03:28:28.826Z,75.07
2018-09-08T03:30:56.794Z,75.03
2018-09-08T03:33:24.764Z,75.08
2018-09-08T03:35:52.736Z,75.22
2018-09-08T03:38:20.595Z,75.62
2018-09-08T03:40:48.872Z,75.72
2018-09-08T03:43:16.900Z,76.08
2018-09-08T03:45:45.227Z,75.41
2018-09-08T03:48:13.287Z,75.68
2018-09-08T03:50:41.562Z,75.40
2018-09-08T03:53:09.542Z,75.67
2018-09-08T03:55:37.604Z,75.76
2018-09-08T03:58:05.627Z,75.33
2018-09-08T04:00:33.743Z,75.05
2018-09-08T04:03:03.331Z,75.05
2018-09-08T04:05:32.845Z,75.64
2018-09-08T04:08:02.470Z,76.08
2018-09-08T04:10:32.022Z,74.75
2018-09-08T04:13:01.785Z,74.08
2018-09-08T04:15:31.530Z,74.18
2018-09-08T04:18:01.326Z,74.63
2018-09-08T04:20:30.970Z,74.98
2018-09-08T04:23:00.557Z,74.64
2018-09-08T04:25:30.297Z,74.87
2018-09-08T04:27:59.768Z,74.51
2018-09-08T04:30:29.431Z,74.40
2018-09-08T04:32:59.106Z,74.92
2018-09-08T04:35:28.950Z,74.53
2018-09-08T04:37:58.583Z,74.34
2018-09-08T04:40:28.233Z,74.02
2018-09-08T04:42:57.853Z,73.92
2018-09-08T04:45:27.418Z,73.33
2018-09-08T04:47:57.580Z,73.91
2018-09-08T04:50:27.859Z,73.14
2018-09-08T04:52:57.491Z,73.71
2018-09-08T04:55:27.140Z,72.93
2018-09-08T04:57:57.768Z,73.87
2018-09-08T05:00:27.299Z,73.65
2018-09-08T05:02:56.981Z,73.47
2018-09-08T05:05:26.637Z,71.63
2018-09-08T05:07:56.366Z,69.79
2018-09-08T05:10:25.897Z,68.58
2018-09-08T05:12:55.378Z,65.82
2018-09-08T05:15:25.328Z,64.30
2018-09-08T05:17:54.953Z,62.55
2018-09-08T05:20:24.516Z,63.81
2018-09-08T05:22:54.151Z,62.96
2018-09-08T05:25:24.143Z,61.41
2018-09-08T05:27:53.709Z,59.34
2018-09-08T05:30:23.522Z,58.09
2018-09-08T05:32:53.145Z,59.19
2018-09-08T05:35:22.729Z,58.78
2018-09-08T05:37:52.287Z,57.57
2018-09-08T05:40:22.462Z,54.81
2018-09-08T05:42:52.249Z,51.65
2018-09-08T05:45:22.567Z,50.87
2018-09-08T05:47:52.229Z,48.88
2018-09-08T05:50:21.761Z,49.00
2018-09-08T05:52:51.435Z,46.85
2018-09-08T05:55:21.267Z,46.70
2018-09-08T05:57:50.729Z,45.68
2018-09-08T06:00:20.348Z,45.76
2018-09-08T06:02:50.056Z,44.58
2018-09-08T06:05:19.571Z,43.83
2018-09-08T06:07:49.323Z,44.10
2018-09-08T06:10:19.118Z,42.25
2018-09-08T06:12:48.811Z,42.34
2018-09-08T06:15:18.526Z,39.77
2018-09-08T06:17:48.112Z,38.85
2018-09-08T06:20:17.705Z,41.53
2018-09-08T06:22:47.296Z,45.94
2018-09-08T06:25:16.800Z,45.65
2018-09-08T06:27:46.476Z,47.32
2018-09-08T06:30:16.868Z,44.90
2018-09-08T06:32:46.373Z,44.12
2018-09-08T06:35:16.149Z,42.75
2018-09-08T06:37:45.707Z,43.20
2018-09-08T06:40:15.208Z,42.55
2018-09-08T06:42:45.110Z,39.96
2018-09-08T06:45:15.006Z,37.58
2018-09-08T06:47:44.534Z,37.74
2018-09-08T06:50:14.162Z,37.51
2018-09-08T06:52:43.711Z,37.92
2018-09-08T06:55:13.215Z,38.47
2018-09-08T06:57:42.779Z,37.57
2018-09-08T07:00:12.494Z,36.05
2018-09-08T07:02:42.192Z,37.26
2018-09-08T07:05:12.002Z,37.58
2018-09-08T07:07:41.581Z,37.35
2018-09-08T07:10:11.063Z,38.43
2018-09-08T07:12:40.966Z,37.78
2018-09-08T07:15:12.834Z,36.73
2018-09-08T07:17:42.333Z,37.59
2018-09-08T07:20:11.979Z,38.34
2018-09-08T07:22:41.486Z,38.22
2018-09-08T07:25:11.329Z,38.67
2018-09-08T07:27:41.099Z,38.82
2018-09-08T07:30:10.798Z,38.69
2018-09-08T07:32:40.375Z,38.39
2018-09-08T07:35:10.069Z,37.89
2018-09-08T07:37:39.742Z,38.04
2018-09-08T07:40:09.598Z,37.67
2018-09-08T07:42:39.249Z,38.27
2018-09-08T07:45:08.922Z,38.24
2018-09-08T07:47:38.904Z,37.52
2018-09-08T07:50:08.759Z,35.40
2018-09-08T07:52:38.428Z,34.80
2018-09-08T07:55:08.043Z,35.29
2018-09-08T07:57:37.671Z,35.33
2018-09-08T08:00:07.634Z,35.69
2018-09-08T08:02:37.388Z,35.89
2018-09-08T08:05:07.145Z,35.47
2018-09-08T08:07:36.689Z,36.75
2018-09-08T08:10:06.376Z,36.62
2018-09-08T08:12:37.252Z,35.82
2018-09-08T08:15:07.546Z,35.88
2018-09-08T08:17:36.981Z,34.62
2018-09-08T08:20:06.823Z,33.67
2018-09-08T08:22:36.419Z,33.60
2018-09-08T08:25:06.361Z,31.01
2018-09-08T08:27:36.758Z,30.25
2018-09-08T08:30:08.770Z,28.80
2018-09-08T08:32:38.616Z,29.60
2018-09-08T08:35:08.345Z,28.04
2018-09-08T08:37:38.079Z,27.13
2018-09-08T08:40:07.645Z,27.33
2018-09-08T08:42:37.328Z,29.27
2018-09-08T08:45:07.192Z,27.03
2018-09-08T08:47:36.882Z,27.58
2018-09-08T08:50:17.195Z,27.03
2018-09-08T08:52:57.733Z,27.20
2018-09-08T08:55:27.684Z,27.37
2018-09-08T08:57:57.417Z,28.00
2018-09-08T09:00:27.049Z,27.63
2018-09-08T09:02:56.695Z,28.63
2018-09-08T09:05:26.823Z,28.81
2018-09-08T09:07:56.434Z,28.26
2018-09-08T09:10:26.231Z,26.92
2018-09-08T09:12:55.965Z,26.30
2018-09-08T09:15:26.023Z,25.89
2018-09-08T09:17:55.626Z,23.83
2018-09-08T09:20:36.239Z,24.83
2018-09-08T09:24:18.464Z,24.85
2018-09-08T09:26:48.221Z,24.42
2018-09-08T09:29:17.757Z,23.51
2018-09-08T09:31:47.774Z,22.44
2018-09-08T09:34:17.346Z,22.87
2018-09-08T09:36:46.833Z,23.59
2018-09-08T09:39:16.387Z,24.10
2018-09-08T09:41:45.890Z,22.80
2018-09-08T09:44:15.664Z,23.86
2018-09-08T09:46:45.338Z,25.30
2018-09-08T09:49:14.885Z,23.36
2018-09-08T09:51:44.487Z,23.97
2018-09-08T09:54:14.295Z,24.23
2018-09-08T09:56:43.974Z,26.91
2018-09-08T09:59:13.484Z,27.51
2018-09-08T10:01:44.745Z,29.78
2018-09-08T10:04:14.428Z,30.10
2018-09-08T10:06:44.169Z,31.77
2018-09-08T10:09:14.063Z,32.61
2018-09-08T10:11:43.741Z,32.64
2018-09-08T10:14:13.515Z,32.57
2018-09-08T10:16:43.217Z,32.30
2018-09-08T10:19:13.224Z,30.89
2018-09-08T10:21:43.507Z,29.22
2018-09-08T10:24:13.497Z,26.15
2018-09-08T10:26:43.227Z,26.50
2018-09-08T10:29:13.604Z,27.10
2018-09-08T10:31:43.351Z,25.64
2018-09-08T10:34:13.005Z,26.28
2018-09-08T10:36:42.854Z,24.89
2018-09-08T10:39:12.440Z,24.98
2018-09-08T10:41:42.079Z,23.51
2018-09-08T10:44:11.851Z,25.20
2018-09-08T10:46:41.376Z,25.24
2018-09-08T10:49:11.121Z,25.11
2018-09-08T10:51:50.434Z,24.72
2018-09-08T10:54:20.024Z,26.70
2018-09-08T10:56:49.671Z,26.66
2018-09-08T10:59:19.314Z,27.98
2018-09-08T11:01:49.043Z,29.39
2018-09-08T11:04:18.662Z,29.91
2018-09-08T11:06:48.425Z,30.44
2018-09-08T11:09:17.978Z,28.73
2018-09-08T11:11:47.626Z,29.90
2018-09-08T11:14:17.350Z,30.78
2018-09-08T11:16:46.977Z,31.40
2018-09-08T11:19:16.765Z,31.48
2018-09-08T11:21:46.395Z,30.17
2018-09-08T11:24:15.987Z,29.32
2018-09-08T11:26:45.622Z,28.55
2018-09-08T11:29:15.279Z,27.10
2018-09-08T11:31:45.025Z,26.59
2018-09-08T11:34:14.670Z,26.55
2018-09-08T11:36:44.612Z,26.90
2018-09-08T11:39:14.252Z,27.17
2018-09-08T11:41:44.096Z,26.64
2018-09-08T11:44:13.810Z,26.62
2018-09-08T11:46:43.400Z,27.28
2018-09-08T11:49:13.033Z,26.62
2018-09-08T11:51:42.664Z,26.57
2018-09-08T11:54:12.330Z,27.23
2018-09-08T11:56:41.857Z,29.87
2018-09-08T11:59:11.472Z,30.50
2018-09-08T12:01:41.068Z,31.17
2018-09-08T12:04:10.604Z,31.28
2018-09-08T12:06:40.162Z,31.58
2018-09-08T12:09:11.526Z,30.82
2018-09-08T12:11:41.184Z,30.75
2018-09-08T12:14:11.258Z,31.16
2018-09-08T12:16:41.427Z,30.56
2018-09-08T12:19:11.002Z,30.28
2018-09-08T12:21:40.976Z,30.11
2018-09-08T12:24:10.825Z,30.35
2018-09-08T12:26:40.757Z,31.54
2018-09-08T12:29:10.664Z,31.25
2018-09-08T12:31:40.426Z,31.74
2018-09-08T12:34:10.255Z,31.37
2018-09-08T12:36:40.242Z,31.79
2018-09-08T12:39:10.394Z,32.77
2018-09-08T12:41:40.153Z,34.08
2018-09-08T12:44:09.762Z,34.56
2018-09-08T12:46:39.268Z,35.50
2018-09-08T12:49:08.742Z,36.75
2018-09-08T12:51:38.401Z,36.26
2018-09-08T12:54:08.080Z,44.87
2018-09-08T12:56:38.051Z,54.00
2018-09-08T12:59:07.909Z,64.76
2018-09-08T13:01:37.715Z,67.72
2018-09-08T13:04:08.007Z,70.87
2018-09-08T13:06:38.366Z,74.46
2018-09-08T13:09:08.171Z,75.27
2018-09-08T13:11:38.037Z,70.02
2018-09-08T13:14:07.900Z,67.16
2018-09-08T13:16:37.654Z,69.69
2018-09-08T13:19:07.511Z,71.02
2018-09-08T13:21:37.166Z,66.29
2018-09-08T13:24:06.863Z,63.93
2018-09-08T13:26:36.539Z,64.46
2018-09-08T13:29:06.306Z,59.68
2018-09-08T13:31:35.866Z,60.70
2018-09-08T13:34:07.316Z,59.17
2018-09-08T13:36:37.108Z,56.13
2018-09-08T13:39:08.109Z,55.11
2018-09-08T13:41:37.830Z,55.33
2018-09-08T13:44:07.394Z,55.00
2018-09-08T13:46:37.094Z,53.88
2018-09-08T13:49:07.157Z,51.32
2018-09-08T13:51:37.544Z,51.49
2018-09-08T13:54:07.580Z,49.91
2018-09-08T13:56:37.465Z,50.03
2018-09-08T13:59:07.231Z,50.66
2018-09-08T14:01:36.825Z,50.52
2018-09-08T14:04:06.566Z,51.60
2018-09-08T14:06:36.374Z,47.56
2018-09-08T14:09:07.043Z,47.17
2018-09-08T14:11:36.741Z,47.78
2018-09-08T14:14:06.867Z,43.59
2018-09-08T14:16:36.717Z,45.51
2018-09-08T14:19:06.498Z,46.72
2018-09-08T14:21:36.367Z,48.61
2018-09-08T14:24:06.191Z,47.24
2018-09-08T14:26:35.710Z,46.29
2018-09-08T14:29:05.775Z,45.04
2018-09-08T14:31:35.825Z,44.89
2018-09-08T14:34:05.586Z,46.53
2018-09-08T14:36:35.521Z,48.26
2018-09-08T14:39:05.993Z,48.59
2018-09-08T14:41:36.675Z,49.30
2018-09-08T14:44:06.685Z,48.26
2018-09-08T14:46:36.595Z,49.13
2018-09-08T14:49:06.146Z,49.77
2018-09-08T14:51:35.729Z,49.79
2018-09-08T14:54:06.003Z,49.20
2018-09-08T14:56:35.555Z,49.05
2018-09-08T14:59:05.173Z,49.49
2018-09-08T15:01:34.629Z,48.79
2018-09-08T15:04:04.106Z,47.45
2018-09-08T15:06:33.753Z,47.54
2018-09-08T15:09:03.525Z,46.60
2018-09-08T15:11:33.182Z,46.09
2018-09-08T15:14:02.763Z,46.25
2018-09-08T15:16:32.479Z,46.12
2018-09-08T15:19:01.973Z,46.00
2018-09-08T15:21:31.526Z,44.29
2018-09-08T15:24:01.260Z,44.19
2018-09-08T15:26:30.780Z,44.52
2018-09-08T15:29:00.411Z,43.27
2018-09-08T15:31:30.154Z,42.21
2018-09-08T15:33:59.850Z,41.62
2018-09-08T15:36:29.319Z,43.73
2018-09-08T15:38:59.175Z,46.27
2018-09-08T15:41:28.962Z,47.04
2018-09-08T15:43:58.587Z,47.31
2018-09-08T15:46:28.257Z,48.11
2018-09-08T15:48:57.834Z,48.81
2018-09-08T15:51:27.573Z,50.34
2018-09-08T15:53:57.811Z,50.66
2018-09-08T15:56:27.267Z,50.69
2018-09-08T15:58:56.912Z,51.58
2018-09-08T16:01:27.024Z,51.70
2018-09-08T16:03:56.511Z,51.41
2018-09-08T16:06:26.274Z,51.71
2018-09-08T16:08:55.849Z,52.05
2018-09-08T16:11:25.808Z,52.25
2018-09-08T16:13:55.510Z,53.06
2018-09-08T16:16:25.047Z,55.13
2018-09-08T16:18:54.594Z,56.81
2018-09-08T16:21:24.169Z,57.33
2018-09-08T16:23:54.118Z,57.88
2018-09-08T16:26:24.075Z,58.76
2018-09-08T16:28:53.638Z,59.08
2018-09-08T16:31:23.577Z,58.95
2018-09-08T16:33:53.438Z,58.59
2018-09-08T16:36:22.939Z,58.73
2018-09-08T16:38:52.462Z,58.60
2018-09-08T16:41:22.052Z,58.70
2018-09-08T16:43:51.582Z,57.68
2018-09-08T16:46:21.426Z,57.96
2018-09-08T16:48:51.459Z,58.41
2018-09-08T16:51:21.242Z,58.12
2018-09-08T16:53:51.207Z,58.36
2018-09-08T16:56:20.814Z,57.16
2018-09-08T16:58:52.008Z,57.04
2018-09-08T17:01:21.689Z,56.97
2018-09-08T17:03:51.155Z,56.55
2018-09-08T17:06:20.697Z,56.69
2018-09-08T17:08:50.129Z,56.39
2018-09-08T17:11:19.780Z,56.34
2018-09-08T17:13:49.424Z,56.20
2018-09-08T17:16:18.917Z,56.30
2018-09-08T17:18:48.821Z,56.78
2018-09-08T17:21:18.541Z,56.72
2018-09-08T17:23:48.126Z,56.76
2018-09-08T17:26:18.495Z,56.47
2018-09-08T17:28:48.129Z,56.55
2018-09-08T17:31:17.648Z,56.52
2018-09-08T17:33:47.255Z,56.91
2018-09-08T17:36:16.839Z,56.54
2018-09-08T17:38:46.407Z,56.16
2018-09-08T17:41:16.122Z,56.97
2018-09-08T17:43:45.946Z,57.65
2018-09-08T17:46:15.745Z,57.77
2018-09-08T17:48:45.560Z,57.66
2018-09-08T17:51:15.443Z,57.67
2018-09-08T17:53:45.045Z,57.10
2018-09-08T17:56:14.561Z,56.95
2018-09-08T17:58:44.163Z,57.32
2018-09-08T18:01:13.912Z,57.24
2018-09-08T18:03:43.909Z,57.50
2018-09-08T18:06:13.514Z,57.55
2018-09-08T18:08:43.217Z,58.30
2018-09-08T18:11:13.257Z,58.66
2018-09-08T18:13:42.864Z,58.41
2018-09-08T18:16:12.505Z,58.23
2018-09-08T18:18:42.421Z,57.99
2018-09-08T18:21:12.094Z,57.29
2018-09-08T18:23:42.487Z,56.78
2018-09-08T18:26:12.263Z,57.16
2018-09-08T18:28:41.965Z,57.41
2018-09-08T18:31:11.594Z,57.06
2018-09-08T18:33:41.141Z,56.94
2018-09-08T18:36:10.998Z,56.33
2018-09-08T18:38:40.601Z,56.52
2018-09-08T18:41:10.304Z,56.64
2018-09-08T18:43:39.861Z,56.34
2018-09-08T18:46:09.551Z,56.33
2018-09-08T18:48:39.411Z,55.79
2018-09-08T18:51:09.449Z,55.90
2018-09-08T18:53:39.406Z,54.40
2018-09-08T18:56:09.038Z,54.24
2018-09-08T18:58:38.470Z,54.38
2018-09-08T19:01:08.336Z,54.12
2018-09-08T19:03:37.823Z,53.88
2018-09-08T19:06:08.088Z,53.25
2018-09-08T19:08:43.252Z,53.75
2018-09-08T19:11:13.637Z,53.81
2018-09-08T19:13:43.812Z,53.96
2018-09-08T19:16:13.557Z,53.66
2018-09-08T19:18:43.065Z,54.00
2018-09-08T19:21:13.159Z,54.08
2018-09-08T19:23:42.682Z,54.44
2018-09-08T19:26:12.271Z,54.88
2018-09-08T19:28:42.030Z,55.47
2018-09-08T19:31:11.473Z,55.24
2018-09-08T19:33:41.107Z,55.77
2018-09-08T19:36:10.736Z,56.15
2018-09-08T19:38:40.393Z,56.39
2018-09-08T19:41:10.012Z,56.49
2018-09-08T19:43:39.605Z,56.62
2018-09-08T19:46:14.127Z,57.40
2018-09-08T19:48:43.923Z,56.86
2018-09-08T19:51:13.864Z,57.45
2018-09-08T19:53:48.277Z,57.82
2018-09-08T19:56:18.123Z,58.48
2018-09-08T19:58:52.865Z,58.60
2018-09-08T20:01:22.651Z,59.13
2018-09-08T20:03:52.364Z,59.25
2018-09-08T20:06:22.177Z,58.70
2018-09-08T20:08:51.975Z,59.08
2018-09-08T20:11:22.029Z,59.48
2018-09-08T20:13:51.916Z,59.54
2018-09-08T20:16:21.824Z,60.01
2018-09-08T20:18:51.649Z,60.30
2018-09-08T20:21:21.398Z,60.90
2018-09-08T20:23:51.237Z,61.30
2018-09-08T20:26:20.845Z,61.21
2018-09-08T20:28:50.919Z,61.63
2018-09-08T20:31:21.518Z,62.04
2018-09-08T20:33:51.365Z,61.88
2018-09-08T20:36:21.274Z,62.05
2018-09-08T20:38:51.239Z,62.36
2018-09-08T20:41:20.926Z,62.83
2018-09-08T20:43:50.721Z,62.89
2018-09-08T20:46:20.481Z,63.67
2018-09-08T20:48:50.306Z,63.92
2018-09-08T20:51:20.188Z,64.28
2018-09-08T20:53:50.075Z,64.48
2018-09-08T20:56:19.679Z,65.15
2018-09-08T20:58:50.370Z,65.35
2018-09-08T21:01:20.240Z,65.17
2018-09-08T21:03:49.999Z,63.80
2018-09-08T21:06:19.711Z,63.73
2018-09-08T21:08:49.604Z,63.70
2018-09-08T21:11:19.495Z,63.30
2018-09-08T21:13:49.066Z,63.91
2018-09-08T21:16:18.676Z,63.98
2018-09-08T21:18:48.369Z,64.02
2018-09-08T21:21:17.892Z,64.36
2018-09-08T21:23:47.358Z,64.34
2018-09-08T21:26:16.806Z,64.71
2018-09-08T21:28:46.607Z,64.34
2018-09-08T21:31:16.130Z,65.09
2018-09-08T21:33:45.715Z,64.48
2018-09-08T21:36:15.341Z,64.57
2018-09-08T21:38:45.086Z,64.99
2018-09-08T21:41:14.655Z,65.37
2018-09-08T21:43:44.656Z,65.40
2018-09-08T21:46:14.340Z,66.03
2018-09-08T21:48:44.050Z,65.65
2018-09-08T21:51:13.750Z,65.72
2018-09-08T21:53:43.762Z,66.05
2018-09-08T21:56:13.228Z,66.42
2018-09-08T21:58:42.827Z,66.92
2018-09-08T22:01:17.430Z,67.09
2018-09-08T22:03:46.899Z,67.06
2018-09-08T22:06:16.381Z,67.16
2018-09-08T22:08:45.966Z,67.57
2018-09-08T22:11:16.035Z,67.30
2018-09-08T22:13:45.866Z,67.34
2018-09-08T22:16:15.456Z,67.71
2018-09-08T22:18:45.450Z,67.90
2018-09-08T22:21:15.080Z,67.67
2018-09-08T22:23:45.595Z,68.08
2018-09-08T22:26:15.102Z,67.86
2018-09-08T22:28:45.620Z,67.62
2018-09-08T22:31:15.161Z,68.23
2018-09-08T22:33:44.696Z,68.91
2018-09-08T22:36:14.442Z,69.17
2018-09-08T22:38:43.930Z,69.05
2018-09-08T22:41:13.434Z,69.10
2018-09-08T22:43:42.894Z,69.91
2018-09-08T22:46:12.421Z,71.17
2018-09-08T22:48:41.942Z,71.43
2018-09-08T22:51:11.538Z,72.03
2018-09-08T22:53:41.063Z,73.01
2018-09-08T22:56:10.605Z,72.75
2018-09-08T22:58:40.288Z,72.83
2018-09-08T23:01:09.907Z,72.92
2018-09-08T23:03:39.334Z,72.11
2018-09-08T23:06:09.307Z,69.74
2018-09-08T23:08:39.296Z,68.02
2018-09-08T23:11:09.021Z,67.89
2018-09-08T23:13:38.574Z,67.27
2018-09-08T23:16:08.341Z,67.79
2018-09-08T23:18:38.278Z,68.18
2018-09-08T23:21:08.021Z,67.29
2018-09-08T23:23:37.619Z,67.08
2018-09-08T23:26:08.137Z,67.94
2018-09-08T23:28:37.917Z,67.29
2018-09-08T23:31:07.456Z,67.34
2018-09-08T23:33:38.000Z,67.33
2018-09-08T23:36:09.187Z,67.16
2018-09-08T23:38:38.661Z,67.05
2018-09-08T23:41:08.409Z,67.01
2018-09-08T23:43:37.925Z,67.55
2018-09-08T23:46:07.640Z,67.69
2018-09-08T23:48:37.260Z,67.90
2018-09-08T23:51:07.043Z,68.21
2018-09-08T23:53:36.678Z,68.82
2018-09-08T23:56:06.308Z,69.11
2018-09-08T23:58:37.080Z,68.97
